Time;durP1;ratioP1;P1;durP2;ratioP2;P2;SDS_P1;SDS_P2;PMS_P1;PMS_P2;Temp;Humidity;BMP_temperature;BMP_pressure;BME280_temperature;BME280_humidity;BME280_pressure;Samples;Min_cycle;Max_cycle;Signal;HPM_P1;HPM_P2
2022/03/29 00:00:42;;;;;;;45.53;21.27;;;;;;;8.86;100.00;96435.75;5000314;28;20072;-71
2022/03/29 00:03:08;;;;;;;45.63;20.88;;;;;;;8.97;100.00;96431.44;4984962;28;20042;-70
2022/03/29 00:05:38;;;;;;;46.08;22.00;;;;;;;9.00;100.00;96424.78;5000501;28;20049;-70
2022/03/29 00:08:04;;;;;;;43.13;20.90;;;;;;;9.03;100.00;96422.47;4998012;28;20120;-71
2022/03/29 00:10:30;;;;;;;46.40;21.23;;;;;;;9.05;100.00;96416.88;4995739;28;20468;-71
2022/03/29 00:12:56;;;;;;;46.22;21.20;;;;;;;9.03;100.00;96417.13;4996524;28;20038;-70
2022/03/29 00:15:22;;;;;;;44.40;21.30;;;;;;;9.03;100.00;96411.00;4998484;28;20518;-70
2022/03/29 00:17:49;;;;;;;47.58;22.20;;;;;;;9.02;100.00;96401.34;4984388;28;20296;-71
2022/03/29 00:20:15;;;;;;;44.60;21.10;;;;;;;9.01;100.00;96405.88;4998965;28;20326;-71
2022/03/29 00:22:41;;;;;;;44.10;20.42;;;;;;;9.02;100.00;96410.16;4999888;28;20060;-71
2022/03/29 00:25:07;;;;;;;46.13;21.67;;;;;;;8.98;100.00;96401.03;4996941;28;20041;-71
2022/03/29 00:27:37;;;;;;;46.40;22.42;;;;;;;8.97;100.00;96398.59;4997296;28;20058;-70
2022/03/29 00:30:04;;;;;;;47.03;21.33;;;;;;;8.79;100.00;96405.72;4995751;28;20034;-71
2022/03/29 00:32:30;;;;;;;49.47;23.45;;;;;;;8.80;100.00;96399.38;4988683;28;20529;-71
2022/03/29 00:34:58;;;;;;;55.35;24.85;;;;;;;8.64;100.00;96387.59;4994155;28;20080;-71
2022/03/29 00:37:23;;;;;;;48.67;22.70;;;;;;;8.61;100.00;96395.25;4996335;28;20042;-71
2022/03/29 00:39:49;;;;;;;46.55;22.73;;;;;;;8.61;100.00;96396.06;4982252;28;20633;-70
2022/03/29 00:42:14;;;;;;;46.15;21.70;;;;;;;8.59;100.00;96390.16;4995779;28;20061;-70
2022/03/29 00:44:40;;;;;;;45.92;22.00;;;;;;;8.65;100.00;96383.88;4996759;28;20037;-70
2022/03/29 00:47:06;;;;;;;47.30;21.50;;;;;;;8.70;100.00;96382.34;5000566;28;20045;-70
2022/03/29 00:49:32;;;;;;;43.80;21.35;;;;;;;8.73;100.00;96376.53;4996773;28;20056;-71
2022/03/29 00:52:01;;;;;;;43.53;21.23;;;;;;;8.73;100.00;96381.88;4997488;28;20460;-75
2022/03/29 00:54:32;;;;;;;41.83;22.75;;;;;;;8.75;100.00;96382.44;4995442;28;20081;-71
2022/03/29 00:57:00;;;;;;;47.00;23.65;;;;;;;8.78;100.00;96380.09;5001405;28;20108;-70
2022/03/29 00:59:27;;;;;;;51.80;24.55;;;;;;;8.80;100.00;96379.88;4997775;28;20107;-70
2022/03/29 01:01:53;;;;;;;48.97;22.40;;;;;;;8.86;100.00;96376.22;4998681;28;20045;-70
2022/03/29 01:04:23;;;;;;;43.03;21.27;;;;;;;8.75;100.00;96374.44;4998366;28;20398;-70
2022/03/29 01:06:49;;;;;;;48.97;21.42;;;;;;;8.68;100.00;96368.44;4999860;28;20099;-70
2022/03/29 01:09:15;;;;;;;46.42;22.70;;;;;;;8.51;100.00;96371.06;4996857;28;20281;-70
2022/03/29 01:11:41;;;;;;;44.75;21.95;;;;;;;8.50;100.00;96366.78;4996514;28;20038;-70
2022/03/29 01:14:06;;;;;;;40.05;20.88;;;;;;;8.45;100.00;96367.47;4997052;28;20040;-71
2022/03/29 01:19:17;;;;;;;39.67;21.15;;;;;;;8.57;100.00;96357.59;4998239;28;20041;-70
2022/03/29 01:21:54;;;;;;;48.30;22.23;;;;;;;8.68;100.00;96355.09;4998307;28;20076;-71
2022/03/29 01:24:20;;;;;;;48.08;22.38;;;;;;;8.64;100.00;96354.78;4997893;28;20050;-72
2022/03/29 01:26:47;;;;;;;46.20;23.52;;;;;;;8.55;100.00;96354.31;4997353;28;20389;-70
2022/03/29 01:29:13;;;;;;;44.10;21.27;;;;;;;8.71;100.00;96343.94;4997618;28;20045;-70
2022/03/29 01:31:39;;;;;;;44.65;21.58;;;;;;;8.64;100.00;96346.78;5000084;28;20578;-70
2022/03/29 01:34:05;;;;;;;44.80;21.20;;;;;;;8.41;100.00;96346.88;5000917;28;20038;-70
2022/03/29 01:36:31;;;;;;;46.90;21.58;;;;;;;8.27;100.00;96348.97;5002698;28;20486;-70
2022/03/29 01:38:56;;;;;;;47.55;22.13;;;;;;;8.27;100.00;96348.97;5002419;28;20071;-71
2022/03/29 01:41:22;;;;;;;40.38;19.52;;;;;;;8.04;100.00;96341.81;5000908;28;20438;-71
2022/03/29 01:43:47;;;;;;;46.28;22.40;;;;;;;8.05;100.00;96349.56;5001929;28;20459;-70
2022/03/29 01:46:13;;;;;;;41.95;21.98;;;;;;;8.19;100.00;96344.81;5001060;28;20117;-71
2022/03/29 01:48:39;;;;;;;45.55;21.55;;;;;;;8.31;100.00;96334.91;5003448;28;20160;-70
2022/03/29 01:51:06;;;;;;;51.00;23.85;;;;;;;8.38;100.00;96332.13;5002025;28;20041;-70
2022/03/29 01:53:32;;;;;;;53.17;25.23;;;;;;;8.48;100.00;96329.69;5001447;28;20433;-70
2022/03/29 01:55:59;;;;;;;53.22;27.75;;;;;;;8.58;100.00;96324.53;5001331;28;20034;-71
2022/03/29 01:58:27;;;;;;;56.35;27.38;;;;;;;8.60;100.00;96321.63;4998520;28;20112;-70
2022/03/29 02:00:54;;;;;;;58.28;25.00;;;;;;;8.62;100.00;96316.84;5001742;28;20634;-70
2022/03/29 02:03:19;;;;;;;52.83;24.65;;;;;;;8.54;100.00;96309.22;5002525;28;21485;-70
2022/03/29 02:05:45;;;;;;;48.28;23.40;;;;;;;8.66;100.00;96323.34;5003766;28;20037;-71
2022/03/29 02:08:11;;;;;;;50.70;22.67;;;;;;;8.61;100.00;96309.91;4999399;28;20096;-71
2022/03/29 02:10:37;;;;;;;43.60;20.92;;;;;;;8.65;100.00;96317.19;5000355;28;20103;-70
2022/03/29 02:13:03;;;;;;;44.65;21.55;;;;;;;8.65;100.00;96306.53;4998900;28;20405;-71
2022/03/29 02:15:29;;;;;;;42.75;21.55;;;;;;;8.32;100.00;96312.53;5000760;28;20038;-71
2022/03/29 02:17:54;;;;;;;46.92;21.75;;;;;;;8.42;100.00;96314.63;5002581;28;20037;-71
2022/03/29 02:20:22;;;;;;;47.58;22.17;;;;;;;8.51;100.00;96307.84;4999221;28;20045;-70
2022/03/29 02:22:47;;;;;;;46.75;21.10;;;;;;;8.57;100.00;96304.25;4986352;28;20511;-70
2022/03/29 02:25:14;;;;;;;44.65;22.42;;;;;;;8.53;100.00;96304.94;4999772;28;20064;-71
2022/03/29 02:27:43;;;;;;;45.42;21.60;;;;;;;8.42;100.00;96301.28;4998142;28;20440;-71
2022/03/29 02:30:12;;;;;;;43.90;22.25;;;;;;;8.28;100.00;96295.41;5001048;28;20117;-71
2022/03/29 02:32:38;;;;;;;46.92;21.33;;;;;;;8.33;100.00;96305.34;4999911;28;20586;-71
2022/03/29 02:35:05;;;;;;;50.17;21.15;;;;;;;8.30;100.00;96297.81;4999343;28;20049;-70
2022/03/29 02:37:30;;;;;;;51.60;20.70;;;;;;;8.39;100.00;96288.41;4998411;28;20440;-71
2022/03/29 02:39:55;;;;;;;46.85;20.20;;;;;;;8.28;100.00;96294.59;4997983;28;20057;-70
2022/03/29 02:42:21;;;;;;;41.15;20.77;;;;;;;8.08;100.00;96289.66;4997418;28;20084;-71
2022/03/29 02:44:46;;;;;;;45.33;21.48;;;;;;;8.13;100.00;96292.44;4999942;28;20343;-70
2022/03/29 02:47:12;;;;;;;43.05;20.98;;;;;;;8.26;100.00;96286.03;4999834;28;20042;-70
2022/03/29 02:49:37;;;;;;;39.17;19.95;;;;;;;8.31;100.00;96288.75;5000670;28;20049;-70
2022/03/29 02:52:04;;;;;;;42.22;21.13;;;;;;;8.25;100.00;96279.03;4999839;28;20144;-70
2022/03/29 02:54:30;;;;;;;47.15;21.98;;;;;;;8.06;100.00;96281.91;5001669;28;20049;-71
2022/03/29 02:56:55;;;;;;;46.45;20.63;;;;;;;7.97;100.00;96283.31;5000033;28;20364;-71
2022/03/29 02:59:21;;;;;;;48.55;22.48;;;;;;;8.09;100.00;96273.44;4998426;28;20049;-70
2022/03/29 03:01:47;;;;;;;39.88;20.85;;;;;;;8.01;100.00;96283.66;5002401;28;20076;-71
2022/03/29 03:04:13;;;;;;;49.00;21.42;;;;;;;7.93;100.00;96266.19;5000253;28;20604;-70
2022/03/29 03:06:42;;;;;;;48.60;21.27;;;;;;;8.00;100.00;96274.03;5000431;28;20499;-70
2022/03/29 03:09:10;;;;;;;42.08;21.17;;;;;;;7.88;100.00;96276.75;4999864;28;20045;-69
2022/03/29 03:11:36;;;;;;;49.08;22.05;;;;;;;7.79;100.00;96264.84;4998421;28;20421;-71
2022/03/29 03:14:03;;;;;;;49.70;21.92;;;;;;;8.01;100.00;96257.00;4997591;28;20029;-70
2022/03/29 03:16:28;;;;;;;45.88;21.65;;;;;;;8.08;100.00;96252.34;4999903;28;20076;-71
2022/03/29 03:18:54;;;;;;;43.83;21.45;;;;;;;8.17;100.00;96252.78;5001108;28;20046;-70
2022/03/29 03:21:19;;;;;;;53.63;22.80;;;;;;;8.18;100.00;96247.22;4985445;28;20424;-71
2022/03/29 03:23:45;;;;;;;49.90;22.38;;;;;;;8.27;100.00;96245.78;4999280;28;20049;-70
2022/03/29 03:26:10;;;;;;;44.75;21.10;;;;;;;8.16;100.00;96235.16;4996997;28;20048;-70
2022/03/29 03:28:36;;;;;;;49.67;24.10;;;;;;;8.14;100.00;96246.06;5000488;28;20086;-71
2022/03/29 03:31:02;;;;;;;63.15;28.92;;;;;;;7.92;100.00;96243.25;4999296;28;20038;-71
2022/03/29 03:33:27;;;;;;;54.53;24.02;;;;;;;7.97;100.00;96239.88;5000216;28;20054;-70
2022/03/29 03:35:53;;;;;;;56.70;25.10;;;;;;;8.06;100.00;96241.94;4999794;28;20046;-70
2022/03/29 03:38:18;;;;;;;57.00;26.83;;;;;;;8.01;100.00;96227.69;4968092;28;20060;-70
2022/03/29 03:40:44;;;;;;;47.17;23.75;;;;;;;7.95;100.00;96229.47;5002666;28;20072;-71
2022/03/29 03:43:09;;;;;;;48.58;22.45;;;;;;;7.75;100.00;96237.06;4997272;28;20034;-70
2022/03/29 03:45:35;;;;;;;45.85;21.25;;;;;;;7.43;100.00;96237.47;4999855;28;20488;-70
2022/03/29 03:48:02;;;;;;;49.15;22.20;;;;;;;7.41;100.00;96236.88;5000806;28;20576;-70
2022/03/29 03:50:27;;;;;;;43.05;22.15;;;;;;;7.28;100.00;96237.13;4998080;28;20052;-70
2022/03/29 03:52:54;;;;;;;67.30;30.48;;;;;;;7.17;100.00;96232.63;4986723;28;20034;-70
2022/03/29 03:55:21;;;;;;;58.28;27.38;;;;;;;7.30;100.00;96235.03;4997114;28;20092;-71
2022/03/29 03:57:48;;;;;;;66.63;32.20;;;;;;;7.41;100.00;96226.25;4997964;28;20057;-71
2022/03/29 04:00:15;;;;;;;54.83;28.02;;;;;;;7.36;100.00;96217.34;4998103;28;20049;-70
2022/03/29 04:02:41;;;;;;;50.40;25.40;;;;;;;7.31;100.00;96222.53;4999620;28;20627;-70
2022/03/29 04:05:08;;;;;;;47.97;22.85;;;;;;;7.23;100.00;96227.16;4998473;28;20042;-70
2022/03/29 04:07:34;;;;;;;48.65;23.30;;;;;;;7.19;100.00;96212.72;4971555;28;20038;-70
2022/03/29 04:10:00;;;;;;;50.97;24.23;;;;;;;7.24;100.00;96217.34;4997547;28;20469;-70
2022/03/29 04:12:25;;;;;;;49.22;23.10;;;;;;;7.13;100.00;96213.66;4995244;28;20045;-70
2022/03/29 04:14:50;;;;;;;45.63;22.65;;;;;;;6.97;100.00;96207.16;4998460;28;20169;-70
2022/03/29 04:17:16;;;;;;;47.42;22.13;;;;;;;6.84;100.00;96206.59;4983540;28;20042;-70
2022/03/29 04:19:41;;;;;;;46.10;23.65;;;;;;;6.87;100.00;96203.47;4998972;28;20051;-71
2022/03/29 04:22:07;;;;;;;46.65;23.17;;;;;;;6.99;100.00;96194.44;5000633;28;20132;-71
2022/03/29 04:24:33;;;;;;;55.03;25.20;;;;;;;7.07;100.00;96195.13;4999268;28;20485;-70
2022/03/29 04:26:58;;;;;;;45.42;23.42;;;;;;;7.10;100.00;96186.69;4998422;28;20260;-71
2022/03/29 04:29:24;;;;;;;50.72;25.42;;;;;;;7.07;100.00;96179.97;4999527;28;20066;-70
2022/03/29 04:31:52;;;;;;;52.95;24.10;;;;;;;7.16;100.00;96188.41;5000017;28;20712;-70
2022/03/29 04:34:17;;;;;;;53.13;23.90;;;;;;;6.98;100.00;96179.53;5001264;28;20050;-71
2022/03/29 04:36:43;;;;;;;47.08;23.25;;;;;;;6.80;100.00;96181.50;5002503;28;20046;-70
2022/03/29 04:39:08;;;;;;;46.85;23.17;;;;;;;6.78;100.00;96183.59;4997786;28;20116;-70
2022/03/29 04:41:34;;;;;;;51.67;23.95;;;;;;;6.88;100.00;96175.84;4997351;28;20137;-71
2022/03/29 04:43:59;;;;;;;51.75;23.65;;;;;;;6.92;100.00;96177.78;4999051;28;20084;-70
2022/03/29 04:46:25;;;;;;;50.20;23.42;;;;;;;6.97;100.00;96167.25;5002078;28;20397;-70
2022/03/29 04:48:54;;;;;;;54.33;24.08;;;;;;;6.97;100.00;96166.47;4999477;28;20050;-71
2022/03/29 04:51:19;;;;;;;55.25;24.17;;;;;;;6.73;100.00;96165.66;4998135;28;20041;-70
2022/03/29 04:53:45;;;;;;;57.35;26.63;;;;;;;6.65;100.00;96168.66;4970342;28;20049;-70
2022/03/29 04:56:10;;;;;;;54.85;26.55;;;;;;;6.64;100.00;96169.69;4998092;28;20089;-70
2022/03/29 04:58:36;;;;;;;55.63;25.35;;;;;;;6.58;100.00;96165.31;4998713;28;20128;-70
2022/03/29 05:01:01;;;;;;;54.08;25.58;;;;;;;6.64;100.00;96159.06;4999653;28;20046;-72
2022/03/29 05:03:27;;;;;;;53.47;25.80;;;;;;;6.68;100.00;96149.56;4996852;28;20052;-71
2022/03/29 05:05:52;;;;;;;55.03;24.25;;;;;;;6.75;100.00;96158.25;5001754;28;20320;-70
2022/03/29 05:08:18;;;;;;;43.80;23.10;;;;;;;6.75;100.00;96163.56;4998217;28;20041;-71
2022/03/29 05:10:43;;;;;;;53.67;23.48;;;;;;;6.75;100.00;96165.41;5002549;28;20128;-72
2022/03/29 05:13:09;;;;;;;46.95;22.23;;;;;;;6.68;100.00;96163.69;4998255;28;20043;-70
2022/03/29 05:15:35;;;;;;;48.03;22.40;;;;;;;6.65;100.00;96161.50;4984335;28;20046;-70
2022/03/29 05:18:02;;;;;;;45.17;22.67;;;;;;;6.66;100.00;96168.41;5000142;28;20073;-72
2022/03/29 05:20:27;;;;;;;47.67;21.80;;;;;;;6.60;100.00;96156.03;4998144;28;20548;-70
2022/03/29 05:22:57;;;;;;;41.58;21.45;;;;;;;6.66;100.00;96151.66;5000547;28;20046;-70
2022/03/29 05:25:24;;;;;;;46.72;21.50;;;;;;;6.71;100.00;96159.75;4997780;28;20634;-72
2022/03/29 05:27:57;;;;;;;52.45;22.05;;;;;;;6.73;100.00;96147.03;4997450;28;20728;-71
2022/03/29 05:30:23;;;;;;;49.80;22.10;;;;;;;6.71;100.00;96154.44;4996872;28;20038;-72
2022/03/29 05:33:15;;;;;;;44.85;21.30;;;;;;;6.58;100.00;96142.19;5000722;28;20044;-70
2022/03/29 05:35:38;;;;;;;43.88;22.83;;;;;;;6.54;100.00;96161.50;4999493;28;20057;-70
2022/03/29 05:38:04;;;;;;;46.25;20.83;;;;;;;6.63;100.00;96150.28;4997324;28;20038;-71
2022/03/29 05:40:30;;;;;;;42.65;22.50;;;;;;;6.54;100.00;96161.50;5000251;28;20099;-71
2022/03/29 05:42:55;;;;;;;44.88;22.63;;;;;;;6.48;100.00;96163.22;4995973;28;20462;-71
2022/03/29 05:45:21;;;;;;;44.75;21.90;;;;;;;6.50;100.00;96157.66;5000171;28;20659;-71
2022/03/29 05:50:31;;;;;;;45.22;22.23;;;;;;;6.75;100.00;96166.22;4997891;28;20396;-70
2022/03/29 05:52:58;;;;;;;50.15;23.35;;;;;;;6.79;100.00;96145.31;5001117;28;20445;-70
2022/03/29 05:55:25;;;;;;;50.15;23.60;;;;;;;6.80;100.00;96158.38;4999526;28;20116;-70
2022/03/29 05:57:52;;;;;;;50.55;23.35;;;;;;;6.93;100.00;96154.69;4999874;28;20041;-70
2022/03/29 06:00:21;;;;;;;51.45;23.45;;;;;;;6.98;100.00;96152.13;4997339;28;20510;-70
2022/03/29 06:02:49;;;;;;;47.88;23.25;;;;;;;7.13;100.00;96154.28;4997729;28;20428;-70
2022/03/29 06:05:14;;;;;;;50.58;24.30;;;;;;;7.20;100.00;96170.94;4995619;28;20049;-70
2022/03/29 06:07:40;;;;;;;56.20;23.95;;;;;;;7.29;100.00;96158.88;4998764;28;20050;-70
2022/03/29 06:10:06;;;;;;;44.92;23.25;;;;;;;7.24;100.00;96162.28;4999150;28;20522;-70
2022/03/29 06:12:33;;;;;;;46.97;23.65;;;;;;;7.20;100.00;96170.94;4999783;28;20504;-71
2022/03/29 06:15:02;;;;;;;53.30;26.17;;;;;;;7.37;100.00;96155.06;4997515;28;20116;-71
2022/03/29 06:17:27;;;;;;;51.10;24.55;;;;;;;7.42;100.00;96163.16;5001522;28;20037;-70
2022/03/29 06:19:54;;;;;;;50.97;24.38;;;;;;;7.29;100.00;96163.41;5002023;28;20777;-69
2022/03/29 06:22:20;;;;;;;47.88;24.90;;;;;;;7.30;100.00;96167.69;4984696;28;20046;-70
2022/03/29 06:24:46;;;;;;;51.75;24.13;;;;;;;7.32;100.00;96153.13;5001399;28;20077;-70
2022/03/29 06:27:11;;;;;;;43.95;22.17;;;;;;;7.39;100.00;96161.78;4998075;28;20404;-71
2022/03/29 06:29:37;;;;;;;44.50;23.13;;;;;;;7.47;100.00;96166.75;4995844;28;20152;-69
2022/03/29 06:32:03;;;;;;;50.30;23.90;;;;;;;7.63;100.00;96172.38;4996733;28;20087;-69
2022/03/29 06:34:29;;;;;;;50.40;23.15;;;;;;;7.75;100.00;96165.94;5001249;28;20423;-70
2022/03/29 06:36:58;;;;;;;49.67;23.17;;;;;;;7.80;100.00;96159.91;5005612;28;20184;-71
2022/03/29 06:39:23;;;;;;;51.80;23.92;;;;;;;7.80;100.00;96168.72;5001611;28;20038;-70
2022/03/29 06:41:50;;;;;;;52.03;23.45;;;;;;;7.89;100.00;96161.16;5000459;28;20053;-70
2022/03/29 06:44:17;;;;;;;53.38;24.63;;;;;;;8.01;100.00;96169.88;4997730;28;20092;-70
2022/03/29 06:46:43;;;;;;;47.53;24.20;;;;;;;8.30;100.00;96170.66;5001999;28;20443;-69
2022/03/29 06:49:08;;;;;;;49.15;23.92;;;;;;;8.49;100.00;96170.47;5001169;28;20077;-71
2022/03/29 06:51:35;;;;;;;45.17;21.98;;;;;;;8.50;100.00;96162.22;5002073;28;20042;-71
2022/03/29 06:54:03;;;;;;;47.85;23.27;;;;;;;8.42;100.00;96157.31;5002538;28;20056;-70
2022/03/29 06:56:30;;;;;;;50.85;23.90;;;;;;;8.37;100.00;96152.69;5005193;28;20425;-70
2022/03/29 06:58:56;;;;;;;48.38;23.05;;;;;;;8.61;100.00;96152.53;5000994;28;20049;-69
2022/03/29 07:01:22;;;;;;;42.50;22.17;;;;;;;8.63;100.00;96145.88;5000974;28;20050;-70
2022/03/29 07:03:48;;;;;;;45.30;23.20;;;;;;;8.59;100.00;96152.78;5002127;28;20080;-70
2022/03/29 07:06:14;;;;;;;51.35;23.10;;;;;;;8.69;100.00;96151.31;5000978;28;20538;-70
2022/03/29 07:11:16;;;;;;;43.40;22.20;;;;;;;8.54;100.00;96159.88;5002414;28;20034;-70
2022/03/29 07:11:25;;;;;;;44.80;21.30;;;;;;;8.20;100.00;96161.69;5000218;28;20468;-70
2022/03/29 07:13:51;;;;;;;50.33;23.20;;;;;;;8.10;100.00;96175.66;5001146;28;20088;-71
2022/03/29 07:16:16;;;;;;;48.42;21.13;;;;;;;8.14;100.00;96170.63;4999189;28;20404;-70
2022/03/29 07:18:42;;;;;;;46.10;21.95;;;;;;;8.30;100.00;96169.84;5003552;28;20038;-70
2022/03/29 07:21:10;;;;;;;53.50;23.45;;;;;;;8.44;100.00;96171.19;4999801;28;20669;-70
2022/03/29 07:23:36;;;;;;;41.95;21.90;;;;;;;8.60;100.00;96162.38;5002578;28;20069;-71
2022/03/29 07:26:02;;;;;;;47.22;22.20;;;;;;;8.69;100.00;96173.47;4999488;28;20037;-70
2022/03/29 07:28:28;;;;;;;41.42;20.98;;;;;;;8.66;100.00;96176.63;4999415;28;20140;-71
2022/03/29 07:30:53;;;;;;;52.00;22.05;;;;;;;8.63;100.00;96177.09;5000581;28;20500;-70
2022/03/29 07:33:19;;;;;;;52.70;23.98;;;;;;;8.88;100.00;96176.69;4984710;28;20099;-70
2022/03/29 07:35:45;;;;;;;49.50;20.85;;;;;;;8.94;100.00;96175.69;4999498;28;20255;-70
2022/03/29 07:38:12;;;;;;;51.20;23.77;;;;;;;8.96;100.00;96172.81;4984538;28;20619;-70
2022/03/29 07:40:39;;;;;;;44.13;21.67;;;;;;;9.19;100.00;96175.28;5000385;28;20476;-70
2022/03/29 07:43:06;;;;;;;48.28;22.02;;;;;;;9.36;100.00;96168.03;4994190;28;20485;-70
2022/03/29 07:45:32;;;;;;;47.10;22.20;;;;;;;9.42;100.00;96174.25;5000800;28;20135;-71
2022/03/29 07:47:58;;;;;;;49.13;21.88;;;;;;;9.25;100.00;96176.94;5001887;28;20408;-69
2022/03/29 07:50:26;;;;;;;47.28;22.95;;;;;;;9.46;100.00;96167.34;4985604;28;20038;-71
2022/03/29 07:52:52;;;;;;;43.05;21.02;;;;;;;9.41;100.00;96162.72;5000700;28;20084;-70
2022/03/29 07:55:18;;;;;;;45.83;22.48;;;;;;;9.61;100.00;96169.38;4984384;28;20349;-71
2022/03/29 07:57:44;;;;;;;52.38;23.88;;;;;;;9.67;100.00;96163.88;5003236;28;20500;-71
2022/03/29 08:02:56;;;;;;;48.45;21.80;;;;;;;10.14;100.00;96168.66;5001562;28;20508;-70
2022/03/29 08:05:22;;;;;;;45.88;23.63;;;;;;;10.42;100.00;96159.56;4997774;28;20038;-71
2022/03/29 08:07:48;;;;;;;48.70;22.45;;;;;;;10.26;100.00;96168.50;5001409;28;20156;-71
2022/03/29 08:10:13;;;;;;;44.83;22.85;;;;;;;10.44;100.00;96170.03;4999751;28;20092;-70
2022/03/29 08:12:40;;;;;;;43.90;22.73;;;;;;;10.71;100.00;96162.75;4999275;28;20050;-71
2022/03/29 08:15:08;;;;;;;49.35;23.40;;;;;;;10.66;100.00;96160.03;4997771;28;20493;-70
2022/03/29 08:17:34;;;;;;;46.58;22.42;;;;;;;10.78;100.00;96157.97;4999552;28;20057;-70
2022/03/29 08:20:00;;;;;;;43.95;21.50;;;;;;;10.60;100.00;96158.38;4999838;28;20504;-71
2022/03/29 08:22:25;;;;;;;41.22;21.65;;;;;;;10.68;100.00;96163.28;5002710;28;20047;-70
2022/03/29 08:24:51;;;;;;;40.65;20.50;;;;;;;10.87;100.00;96152.97;5001003;28;20037;-70
2022/03/29 08:27:17;;;;;;;41.58;21.35;;;;;;;10.70;100.00;96150.44;5000670;28;20057;-70
2022/03/29 08:29:43;;;;;;;37.95;20.33;;;;;;;10.60;100.00;96159.19;5000395;28;20037;-71
2022/03/29 08:32:09;;;;;;;44.75;20.10;;;;;;;10.68;100.00;96157.91;5000493;28;20088;-71
2022/03/29 08:34:34;;;;;;;45.42;21.50;;;;;;;10.86;100.00;96160.19;5001037;28;20141;-71
2022/03/29 08:37:00;;;;;;;42.25;21.17;;;;;;;11.09;100.00;96161.66;4986966;28;20054;-70
2022/03/29 08:39:25;;;;;;;40.30;17.05;;;;;;;10.96;100.00;96145.25;4999652;28;20397;-69
2022/03/29 08:41:58;;;;;;;36.58;18.65;;;;;;;10.87;100.00;96156.44;4971115;28;20519;-70
2022/03/29 08:44:26;;;;;;;36.60;18.00;;;;;;;11.04;100.00;96160.81;5000209;28;20563;-70
2022/03/29 08:46:52;;;;;;;37.78;17.77;;;;;;;11.35;100.00;96157.25;5000035;28;20373;-70
2022/03/29 08:49:19;;;;;;;34.55;15.77;;;;;;;11.20;100.00;96156.38;4999166;28;20042;-70
2022/03/29 08:51:45;;;;;;;36.78;16.52;;;;;;;11.29;100.00;96152.16;4999252;28;20045;-71
2022/03/29 08:54:11;;;;;;;38.55;17.58;;;;;;;11.34;100.00;96146.81;4999690;28;20060;-71
2022/03/29 08:56:39;;;;;;;41.95;15.95;;;;;;;11.36;100.00;96139.31;5002796;28;20060;-71
2022/03/29 08:59:05;;;;;;;34.65;15.98;;;;;;;11.67;100.00;96134.88;5002600;28;20049;-70
2022/03/29 09:01:31;;;;;;;32.45;14.73;;;;;;;12.13;100.00;96125.09;5000397;28;20041;-70
2022/03/29 09:04:12;;;;;;;30.00;14.82;;;;;;;12.27;100.00;96120.03;4999439;28;20466;-71
2022/03/29 09:06:50;;;;;;;32.40;15.18;;;;;;;12.52;100.00;96121.91;4985739;28;20042;-70
2022/03/29 09:09:32;;;;;;;26.25;13.00;;;;;;;12.56;100.00;96117.63;5000464;28;20091;-70
2022/03/29 09:12:19;;;;;;;27.40;12.10;;;;;;;12.27;98.68;96110.09;4997667;28;20054;-71
2022/03/29 09:14:51;;;;;;;21.83;11.38;;;;;;;12.02;99.85;96120.00;4969233;28;20152;-70
2022/03/29 09:17:38;;;;;;;20.00;8.63;;;;;;;12.34;88.58;96131.31;4983916;28;20042;-70
2022/03/29 09:20:13;;;;;;;20.33;8.60;;;;;;;12.55;90.65;96130.25;4998119;28;20056;-70
2022/03/29 09:22:44;;;;;;;17.73;8.20;;;;;;;13.03;88.03;96133.44;4999467;28;20565;-70
2022/03/29 09:25:20;;;;;;;17.65;8.68;;;;;;;13.29;84.55;96111.91;4954152;28;20258;-71
2022/03/29 09:27:56;;;;;;;17.13;8.73;;;;;;;13.37;81.13;96117.50;4988933;28;20606;-71
2022/03/29 09:30:24;;;;;;;16.63;8.30;;;;;;;13.58;85.47;96112.06;4999026;28;20052;-71
2022/03/29 09:32:53;;;;;;;16.63;8.80;;;;;;;13.75;82.45;96107.13;4998210;28;20060;-71
2022/03/29 09:35:19;;;;;;;16.10;8.52;;;;;;;13.83;81.45;96106.56;4998459;28;20765;-70
2022/03/29 09:37:45;;;;;;;19.30;8.68;;;;;;;13.97;81.21;96104.06;4998431;28;20042;-70
2022/03/29 09:40:15;;;;;;;16.25;8.68;;;;;;;14.16;80.63;96099.66;4997128;28;20081;-70
2022/03/29 09:43:06;;;;;;;16.52;9.05;;;;;;;14.34;79.03;96092.00;4988398;28;20352;-70
2022/03/29 09:45:47;;;;;;;16.08;8.50;;;;;;;14.57;74.53;96082.41;4998961;28;20092;-71
2022/03/29 09:48:35;;;;;;;20.05;8.73;;;;;;;14.67;71.34;96085.00;4998129;28;20088;-70
2022/03/29 09:51:02;;;;;;;10.95;6.38;;;;;;;14.49;71.66;96078.44;5001677;28;20045;-70
2022/03/29 09:53:51;;;;;;;14.98;8.30;;;;;;;14.70;68.83;96087.13;5004192;28;20482;-71
2022/03/29 09:56:32;;;;;;;15.57;7.53;;;;;;;14.83;70.67;96077.59;5002978;28;20081;-71
2022/03/29 09:59:04;;;;;;;14.18;7.28;;;;;;;15.06;69.43;96076.81;5001591;28;20062;-70
2022/03/29 10:01:31;;;;;;;12.27;7.45;;;;;;;14.86;63.83;96071.63;5003574;28;20128;-70
2022/03/29 10:03:57;;;;;;;17.40;6.70;;;;;;;15.07;66.04;96061.44;5004959;28;20042;-71
2022/03/29 10:06:23;;;;;;;14.55;7.18;;;;;;;15.38;66.65;96056.50;5001563;28;20052;-70
2022/03/29 10:11:43;;;;;;;13.73;7.32;;;;;;;15.78;65.29;96047.91;5001557;28;20504;-71
2022/03/29 10:14:12;;;;;;;17.67;7.28;;;;;;;15.50;60.82;96040.72;5003197;28;20045;-70
2022/03/29 10:16:38;;;;;;;16.85;7.88;;;;;;;15.56;56.64;96029.59;5001826;28;20046;-71
2022/03/29 10:19:06;;;;;;;17.33;7.85;;;;;;;15.74;64.21;96044.19;5002282;28;20497;-71
2022/03/29 10:21:31;;;;;;;12.88;8.18;;;;;;;14.79;61.86;96034.28;5003047;28;20048;-71
2022/03/29 10:23:59;;;;;;;16.60;8.30;;;;;;;14.91;66.05;96031.19;5003136;28;20033;-71
2022/03/29 10:26:27;;;;;;;14.93;8.13;;;;;;;14.40;67.38;96039.72;5001397;28;20038;-71
2022/03/29 10:28:53;;;;;;;15.07;7.50;;;;;;;14.35;74.08;96034.38;5000571;28;20050;-70
2022/03/29 10:31:33;;;;;;;14.27;8.35;;;;;;;14.31;72.19;96038.72;5000572;28;20052;-70
2022/03/29 10:34:19;;;;;;;12.38;7.18;;;;;;;13.77;74.24;96031.56;4311040;28;10000968;-71
2022/03/29 10:37:09;;;;;;;12.75;7.22;;;;;;;14.20;72.74;96019.97;4999473;28;20077;-70
2022/03/29 10:39:50;;;;;;;14.80;8.13;;;;;;;14.82;70.46;96016.72;4999427;28;20076;-71
2022/03/29 10:42:33;;;;;;;14.93;7.57;;;;;;;14.38;71.45;96014.97;4996158;28;20488;-71
2022/03/29 10:45:12;;;;;;;14.65;8.02;;;;;;;13.85;76.83;96015.66;5002527;28;20041;-71
2022/03/29 10:47:39;;;;;;;14.93;7.78;;;;;;;13.93;78.37;96016.97;4996895;28;20088;-71
2022/03/29 10:50:07;;;;;;;19.38;8.07;;;;;;;14.25;75.84;96019.13;4997477;28;20470;-71
2022/03/29 10:52:38;;;;;;;15.07;7.72;;;;;;;14.22;78.70;96009.72;4997874;28;20041;-71
2022/03/29 10:55:25;;;;;;;16.13;8.13;;;;;;;14.55;74.72;96009.19;4997866;28;20056;-70
2022/03/29 10:58:29;;;;;;;13.90;7.55;;;;;;;14.33;75.71;95998.88;4999629;28;20042;-71
2022/03/29 11:01:12;;;;;;;19.45;8.77;;;;;;;14.79;74.72;95990.38;4937118;28;20435;-70
2022/03/29 11:04:00;;;;;;;11.48;6.55;;;;;;;15.26;66.39;95995.75;4937403;28;20043;-70
2022/03/29 11:06:25;;;;;;;12.50;5.70;;;;;;;14.95;66.95;95984.53;4979790;28;20049;-70
2022/03/29 11:09:05;;;;;;;11.43;5.45;;;;;;;14.25;70.68;95986.03;4997265;28;20466;-71
2022/03/29 11:11:43;;;;;;;11.30;6.03;;;;;;;14.14;72.46;95967.28;4997259;28;20076;-70
2022/03/29 11:14:27;;;;;;;13.35;5.85;;;;;;;14.41;71.24;95976.72;4995418;28;20125;-71
2022/03/29 11:16:53;;;;;;;13.15;5.63;;;;;;;14.81;66.47;95972.03;4997218;28;20125;-71
2022/03/29 11:19:39;;;;;;;9.60;5.25;;;;;;;14.94;63.02;95964.06;4994494;28;20046;-70
2022/03/29 11:22:28;;;;;;;11.93;5.85;;;;;;;14.99;68.19;95957.81;5002200;28;20041;-71
2022/03/29 11:24:55;;;;;;;8.30;4.50;;;;;;;15.15;65.45;95959.22;4967832;28;20635;-71
2022/03/29 11:27:22;;;;;;;8.35;4.72;;;;;;;15.78;59.36;95960.78;4971806;28;20053;-70
2022/03/29 11:29:48;;;;;;;10.40;4.95;;;;;;;16.52;58.79;95950.91;4992078;28;20042;-71
2022/03/29 11:32:17;;;;;;;8.63;4.75;;;;;;;16.93;55.94;95945.56;4992898;28;20050;-71